Harristown, IL

7:02 PM CDT on July 29, 2014 (GMT -0500)
Lincoln (KAAA) Elev 597 ft | 40.16 °N, 89.34 °W | Change Station

Current weather conditions updated 7 minutes ago

Clear
Clear
77 °F
Feels Like 77 °F
N
4
Wind Variable Wind from WNW

Tomorrow is forecast to be nearly the same temperature as today. Afternoon thunderstorms.

Today
High -- | Low -- °F
--% Chance of Precip.
Yesterday
High -- | Low -- °F
Precip. -- in
5:52 AM 8:12 PM
Waxing Crescent, 8% visible
Pressure 30.03 in
Visibility 10.0 miles
Clouds Clear
Dew Point 56 °F
Humidity 47%
Rainfall 0.00 in
Snow Depth Not available.
UV 1 out of 12
Pollen 6.70 out of 12
Air Quality Not available.
Flu Activity Not available.
METAR KAAA 292355Z AUTO 29003KT 10SM CLR 25/13 A3003 RMK AO2 T02500131 10270 20250

More Conditions Fewer Conditions

Pressure 30.03 in
Visibility 10.0 miles
Clouds Clear
Dew Point 56 °F
Humidity 47%
Rainfall 0.00 in
Snow Depth Not available.
UV 1 out of 12
Pollen 6.70 out of 12
Air Quality Not available.
Flu Activity Not available.
METAR KAAA 292355Z AUTO 29003KT 10SM CLR 25/13 A3003 RMK AO2 T02500131 10270 20250

More Conditions Fewer Conditions

10-Day Weather Forecast

Almanac

Astronomy

Jul. 29, 2014 Rise Set
Actual Time 5:52 AM CDT 8:12 PM CDT
Civil Twilight 5:21 AM CDT 8:42 PM CDT
Nautical Twilight 4:44 AM CDT 9:20 PM CDT
Astronomical Twilight 4:02 AM CDT 10:01 PM CDT
Moon 8:28 AM CDT (7/29) 9:25 PM CDT (7/29)
Length of Visible Light 15h 21m
Length of Day
14h 20m
Tomorrow will be 1m 54s shorter.
Waxing Crescent, 8% of the Moon is Illuminated
Today
Waxing Crescent
Aug 3
First Quarter
Aug 10
Full
Aug 17
Last Quarter
Aug 25
New

Today's Extremes

State Highs State Lows

Community

WunderPhotos

Upload Photos

1,738,917 photos uploaded!

Nearby

Snow Depth

Station Depth Elevation
No new snow has been reported.

Earthquake Activity

City Distance Mag. Time & Date
No recent earthquake activity has been reported nearby.
Minimum magnitude displayed is 2.5.

Coastal Water Temperatures

Place Temperature
No Stations Reporting

Nearby Weather Stations

Station Location Temp. Heat Index Dew Point Humidity Wind Precip. Elev Updated Type
APPLEVILLE, Mt Auburn, IL 74.1 °F 75 °F 20 °F 13% WSW  at  0.0 mph - / hr 607 ft 7:00 PM CDT Normal
Sandhill Dr. & Lost Bridge Rd., Decatur, IL 80.1 °F 83 °F 71 °F 73% West  at  1.9 mph 0.00 in / hr 676 ft 7:01 PM CDT Rapid Fire
Forsyth Pkwy, Forsyth, IL 76.2 °F 78 °F 60 °F 57% NW  at  1.0 mph 0.00 in / hr 669 ft 7:00 PM CDT Normal
South Weather Station, Mechanicsburg, IL 79.9 °F 80 °F 55 °F 43% West  at  6.3 mph 0.00 in / hr 587 ft 7:01 PM CDT Rapid Fire
Hillcrest, Clinton, IL 74.7 °F 77 °F 59 °F 58% West  at  3.4 mph 0.00 in / hr 738 ft 7:01 PM CDT Rapid Fire
West of lovington, Lovington, IL 73.4 °F 76 °F 61 °F 64% WSW  at  1.1 mph 0.00 in / hr 666 ft 7:01 PM CDT Rapid Fire

Show More Stations Show Fewer Stations